sensor_id;sensor_type;location;lat;lon;timestamp;temperature;humidity
27741;DHT22;15134;48.768;9.184;2023-03-23T00:00:41;14.90;99.10
27741;DHT22;15134;48.768;9.184;2023-03-23T00:03:09;15.00;99.00
27741;DHT22;15134;48.768;9.184;2023-03-23T00:05:35;15.00;99.20
27741;DHT22;15134;48.768;9.184;2023-03-23T00:08:02;14.90;99.50
27741;DHT22;15134;48.768;9.184;2023-03-23T00:10:29;15.00;99.40
27741;DHT22;15134;48.768;9.184;2023-03-23T00:12:58;14.90;99.40
27741;DHT22;15134;48.768;9.184;2023-03-23T00:15:27;14.90;99.40
27741;DHT22;15134;48.768;9.184;2023-03-23T00:17:58;14.90;99.60
27741;DHT22;15134;48.768;9.184;2023-03-23T00:20:28;14.90;99.70
27741;DHT22;15134;48.768;9.184;2023-03-23T00:22:55;14.90;99.70
27741;DHT22;15134;48.768;9.184;2023-03-23T00:25:25;14.80;99.70
27741;DHT22;15134;48.768;9.184;2023-03-23T00:27:51;14.90;99.70
27741;DHT22;15134;48.768;9.184;2023-03-23T00:30:17;14.80;99.70
27741;DHT22;15134;48.768;9.184;2023-03-23T00:32:43;14.80;99.90
27741;DHT22;15134;48.768;9.184;2023-03-23T00:35:08;14.80;99.70
27741;DHT22;15134;48.768;9.184;2023-03-23T00:37:35;14.80;99.90
27741;DHT22;15134;48.768;9.184;2023-03-23T00:40:01;14.70;99.80
27741;DHT22;15134;48.768;9.184;2023-03-23T00:42:31;14.70;99.80
27741;DHT22;15134;48.768;9.184;2023-03-23T00:45:02;14.70;99.80
27741;DHT22;15134;48.768;9.184;2023-03-23T00:47:27;14.70;99.90
27741;DHT22;15134;48.768;9.184;2023-03-23T00:49:53;14.70;99.80
27741;DHT22;15134;48.768;9.184;2023-03-23T00:52:21;14.70;99.90
27741;DHT22;15134;48.768;9.184;2023-03-23T00:54:47;14.60;99.90
27741;DHT22;15134;48.768;9.184;2023-03-23T00:57:14;14.60;99.90
27741;DHT22;15134;48.768;9.184;2023-03-23T00:59:41;14.70;99.90
27741;DHT22;15134;48.768;9.184;2023-03-23T01:02:07;14.60;99.90
27741;DHT22;15134;48.768;9.184;2023-03-23T01:04:34;14.70;99.90
27741;DHT22;15134;48.768;9.184;2023-03-23T01:07:02;14.70;99.90
27741;DHT22;15134;48.768;9.184;2023-03-23T01:09:28;14.70;99.90
27741;DHT22;15134;48.768;9.184;2023-03-23T01:11:54;14.70;99.90
27741;DHT22;15134;48.768;9.184;2023-03-23T01:14:21;14.70;99.80
27741;DHT22;15134;48.768;9.184;2023-03-23T01:16:49;14.70;99.90
27741;DHT22;15134;48.768;9.184;2023-03-23T01:19:14;14.70;99.80
27741;DHT22;15134;48.768;9.184;2023-03-23T01:21:41;14.60;99.70
27741;DHT22;15134;48.768;9.184;2023-03-23T01:24:06;14.70;99.70
27741;DHT22;15134;48.768;9.184;2023-03-23T01:26:32;14.70;99.60
27741;DHT22;15134;48.768;9.184;2023-03-23T01:28:58;14.70;99.70
27741;DHT22;15134;48.768;9.184;2023-03-23T01:31:25;14.70;99.50
27741;DHT22;15134;48.768;9.184;2023-03-23T01:33:51;14.60;99.50
27741;DHT22;15134;48.768;9.184;2023-03-23T01:36:19;14.60;99.60
27741;DHT22;15134;48.768;9.184;2023-03-23T01:38:46;14.60;99.60
27741;DHT22;15134;48.768;9.184;2023-03-23T01:41:13;14.60;99.70
27741;DHT22;15134;48.768;9.184;2023-03-23T01:46:46;14.60;99.90
27741;DHT22;15134;48.768;9.184;2023-03-23T01:49:13;14.60;99.90
27741;DHT22;15134;48.768;9.184;2023-03-23T01:51:42;14.50;99.80
27741;DHT22;15134;48.768;9.184;2023-03-23T01:54:10;14.50;99.90
27741;DHT22;15134;48.768;9.184;2023-03-23T01:56:40;14.60;99.80
27741;DHT22;15134;48.768;9.184;2023-03-23T01:59:07;14.50;99.90
27741;DHT22;15134;48.768;9.184;2023-03-23T02:01:34;14.50;99.90
27741;DHT22;15134;48.768;9.184;2023-03-23T02:04:03;14.50;99.90
27741;DHT22;15134;48.768;9.184;2023-03-23T02:06:30;14.50;99.90
27741;DHT22;15134;48.768;9.184;2023-03-23T02:09:12;14.40;99.90
27741;DHT22;15134;48.768;9.184;2023-03-23T02:11:39;14.40;99.90
27741;DHT22;15134;48.768;9.184;2023-03-23T02:14:05;14.30;99.90
27741;DHT22;15134;48.768;9.184;2023-03-23T02:22:43;14.20;99.90
27741;DHT22;15134;48.768;9.184;2023-03-23T02:27:14;14.20;99.90
27741;DHT22;15134;48.768;9.184;2023-03-23T02:32:51;14.20;99.90
27741;DHT22;15134;48.768;9.184;2023-03-23T02:34:57;14.20;99.90
27741;DHT22;15134;48.768;9.184;2023-03-23T02:37:32;14.30;99.90
27741;DHT22;15134;48.768;9.184;2023-03-23T02:40:02;14.30;99.90
27741;DHT22;15134;48.768;9.184;2023-03-23T02:42:34;14.30;99.90
27741;DHT22;15134;48.768;9.184;2023-03-23T02:45:05;14.40;99.90
27741;DHT22;15134;48.768;9.184;2023-03-23T02:47:32;14.40;99.90
27741;DHT22;15134;48.768;9.184;2023-03-23T02:49:59;14.40;99.90
27741;DHT22;15134;48.768;9.184;2023-03-23T02:52:27;14.40;99.90
27741;DHT22;15134;48.768;9.184;2023-03-23T02:54:54;14.40;99.90
27741;DHT22;15134;48.768;9.184;2023-03-23T02:57:22;14.40;99.90
27741;DHT22;15134;48.768;9.184;2023-03-23T02:59:48;14.40;99.90
27741;DHT22;15134;48.768;9.184;2023-03-23T03:02:18;14.40;99.90
27741;DHT22;15134;48.768;9.184;2023-03-23T03:07:47;14.30;99.90
27741;DHT22;15134;48.768;9.184;2023-03-23T03:10:19;14.30;99.90
27741;DHT22;15134;48.768;9.184;2023-03-23T03:18:15;14.30;99.90
27741;DHT22;15134;48.768;9.184;2023-03-23T03:20:46;14.30;99.90
27741;DHT22;15134;48.768;9.184;2023-03-23T03:23:14;14.30;99.90
27741;DHT22;15134;48.768;9.184;2023-03-23T03:25:43;14.30;99.90
27741;DHT22;15134;48.768;9.184;2023-03-23T03:28:17;14.30;99.90
27741;DHT22;15134;48.768;9.184;2023-03-23T03:30:52;14.30;99.90
27741;DHT22;15134;48.768;9.184;2023-03-23T03:33:19;14.30;99.90
27741;DHT22;15134;48.768;9.184;2023-03-23T03:35:46;14.30;99.90
27741;DHT22;15134;48.768;9.184;2023-03-23T03:38:12;14.30;99.90
27741;DHT22;15134;48.768;9.184;2023-03-23T03:40:39;14.30;99.90
27741;DHT22;15134;48.768;9.184;2023-03-23T03:43:04;14.30;99.90
27741;DHT22;15134;48.768;9.184;2023-03-23T03:45:31;14.30;99.90
27741;DHT22;15134;48.768;9.184;2023-03-23T03:47:56;14.20;99.90
27741;DHT22;15134;48.768;9.184;2023-03-23T03:50:22;14.20;99.90
27741;DHT22;15134;48.768;9.184;2023-03-23T03:52:48;14.20;99.90
27741;DHT22;15134;48.768;9.184;2023-03-23T03:55:14;14.20;99.90
27741;DHT22;15134;48.768;9.184;2023-03-23T03:57:44;14.10;99.90
27741;DHT22;15134;48.768;9.184;2023-03-23T04:00:13;14.00;99.90
27741;DHT22;15134;48.768;9.184;2023-03-23T04:02:45;14.00;99.90
27741;DHT22;15134;48.768;9.184;2023-03-23T04:05:22;14.00;99.90
27741;DHT22;15134;48.768;9.184;2023-03-23T04:07:48;14.00;99.90
27741;DHT22;15134;48.768;9.184;2023-03-23T04:10:19;14.00;99.90
27741;DHT22;15134;48.768;9.184;2023-03-23T04:12:48;14.10;99.90
27741;DHT22;15134;48.768;9.184;2023-03-23T04:15:45;14.10;99.90
27741;DHT22;15134;48.768;9.184;2023-03-23T04:18:12;14.20;99.90
27741;DHT22;15134;48.768;9.184;2023-03-23T04:20:41;14.20;99.90
27741;DHT22;15134;48.768;9.184;2023-03-23T04:23:06;14.20;99.90
27741;DHT22;15134;48.768;9.184;2023-03-23T04:25:33;14.20;99.90
27741;DHT22;15134;48.768;9.184;2023-03-23T04:28:01;14.20;99.90
27741;DHT22;15134;48.768;9.184;2023-03-23T04:30:32;14.10;99.90
27741;DHT22;15134;48.768;9.184;2023-03-23T04:33:05;14.10;99.90
27741;DHT22;15134;48.768;9.184;2023-03-23T04:35:31;14.10;99.90
27741;DHT22;15134;48.768;9.184;2023-03-23T04:38:09;14.00;99.90
27741;DHT22;15134;48.768;9.184;2023-03-23T04:40:36;14.10;99.90
27741;DHT22;15134;48.768;9.184;2023-03-23T04:43:12;14.10;99.90
27741;DHT22;15134;48.768;9.184;2023-03-23T04:45:57;14.30;99.90
27741;DHT22;15134;48.768;9.184;2023-03-23T04:48:26;14.30;99.90
27741;DHT22;15134;48.768;9.184;2023-03-23T04:51:12;14.40;99.90
27741;DHT22;15134;48.768;9.184;2023-03-23T04:53:38;14.40;99.90
27741;DHT22;15134;48.768;9.184;2023-03-23T04:56:04;14.50;99.90
27741;DHT22;15134;48.768;9.184;2023-03-23T04:58:36;14.50;99.90
27741;DHT22;15134;48.768;9.184;2023-03-23T05:01:26;14.60;99.90
27741;DHT22;15134;48.768;9.184;2023-03-23T05:04:14;14.60;99.90
27741;DHT22;15134;48.768;9.184;2023-03-23T05:06:43;14.60;99.90
27741;DHT22;15134;48.768;9.184;2023-03-23T05:09:16;14.60;99.90
27741;DHT22;15134;48.768;9.184;2023-03-23T05:11:42;14.60;99.90
27741;DHT22;15134;48.768;9.184;2023-03-23T05:14:07;14.60;99.90
27741;DHT22;15134;48.768;9.184;2023-03-23T05:16:33;14.60;99.90
27741;DHT22;15134;48.768;9.184;2023-03-23T05:19:02;14.60;99.90
27741;DHT22;15134;48.768;9.184;2023-03-23T05:21:28;14.70;99.90
27741;DHT22;15134;48.768;9.184;2023-03-23T05:23:56;14.60;99.90
27741;DHT22;15134;48.768;9.184;2023-03-23T05:26:26;14.60;99.90
27741;DHT22;15134;48.768;9.184;2023-03-23T05:28:57;14.60;99.90
27741;DHT22;15134;48.768;9.184;2023-03-23T05:31:35;14.60;99.90
27741;DHT22;15134;48.768;9.184;2023-03-23T05:34:01;14.60;99.90
27741;DHT22;15134;48.768;9.184;2023-03-23T05:36:33;14.70;99.90
27741;DHT22;15134;48.768;9.184;2023-03-23T05:39:19;14.70;99.90
27741;DHT22;15134;48.768;9.184;2023-03-23T05:42:05;14.70;99.90
27741;DHT22;15134;48.768;9.184;2023-03-23T05:44:43;14.70;99.90
27741;DHT22;15134;48.768;9.184;2023-03-23T05:47:10;14.70;99.90
27741;DHT22;15134;48.768;9.184;2023-03-23T05:49:39;14.70;99.90
27741;DHT22;15134;48.768;9.184;2023-03-23T05:52:08;14.70;99.90
27741;DHT22;15134;48.768;9.184;2023-03-23T05:54:34;14.70;99.90
27741;DHT22;15134;48.768;9.184;2023-03-23T05:57:00;14.70;99.90
27741;DHT22;15134;48.768;9.184;2023-03-23T05:59:47;14.80;99.90
27741;DHT22;15134;48.768;9.184;2023-03-23T06:02:19;14.80;99.90
27741;DHT22;15134;48.768;9.184;2023-03-23T06:04:45;14.80;99.90
27741;DHT22;15134;48.768;9.184;2023-03-23T06:07:17;14.80;99.90
27741;DHT22;15134;48.768;9.184;2023-03-23T06:09:51;14.80;99.90
27741;DHT22;15134;48.768;9.184;2023-03-23T06:12:37;14.90;99.90
27741;DHT22;15134;48.768;9.184;2023-03-23T06:15:11;14.90;99.90
27741;DHT22;15134;48.768;9.184;2023-03-23T06:18:13;15.00;99.90
27741;DHT22;15134;48.768;9.184;2023-03-23T06:20:58;15.00;99.90
27741;DHT22;15134;48.768;9.184;2023-03-23T06:23:36;15.00;99.90
27741;DHT22;15134;48.768;9.184;2023-03-23T06:26:03;15.10;99.90
27741;DHT22;15134;48.768;9.184;2023-03-23T06:28:31;15.00;99.90
27741;DHT22;15134;48.768;9.184;2023-03-23T06:31:01;15.00;99.90
27741;DHT22;15134;48.768;9.184;2023-03-23T06:33:30;15.00;99.90
27741;DHT22;15134;48.768;9.184;2023-03-23T06:36:22;15.00;99.90
27741;DHT22;15134;48.768;9.184;2023-03-23T06:39:07;15.00;99.90
27741;DHT22;15134;48.768;9.184;2023-03-23T06:41:46;15.00;99.90
27741;DHT22;15134;48.768;9.184;2023-03-23T06:44:12;15.00;99.90
27741;DHT22;15134;48.768;9.184;2023-03-23T06:46:39;15.00;99.90
27741;DHT22;15134;48.768;9.184;2023-03-23T06:49:15;14.90;99.90
27741;DHT22;15134;48.768;9.184;2023-03-23T06:51:49;14.90;99.90
27741;DHT22;15134;48.768;9.184;2023-03-23T06:54:14;14.90;99.90
27741;DHT22;15134;48.768;9.184;2023-03-23T06:56:42;14.90;99.90
27741;DHT22;15134;48.768;9.184;2023-03-23T06:59:08;15.10;99.90
27741;DHT22;15134;48.768;9.184;2023-03-23T07:01:36;15.20;99.90
27741;DHT22;15134;48.768;9.184;2023-03-23T07:04:03;15.40;99.90
27741;DHT22;15134;48.768;9.184;2023-03-23T07:06:42;15.50;99.90
27741;DHT22;15134;48.768;9.184;2023-03-23T07:09:09;15.60;99.90
27741;DHT22;15134;48.768;9.184;2023-03-23T07:11:34;15.60;99.90
27741;DHT22;15134;48.768;9.184;2023-03-23T07:14:07;15.70;99.90
27741;DHT22;15134;48.768;9.184;2023-03-23T07:16:33;15.60;99.90
27741;DHT22;15134;48.768;9.184;2023-03-23T07:18:59;15.60;99.90
27741;DHT22;15134;48.768;9.184;2023-03-23T07:21:25;15.60;99.90
27741;DHT22;15134;48.768;9.184;2023-03-23T07:23:51;15.50;99.90
27741;DHT22;15134;48.768;9.184;2023-03-23T07:26:28;15.50;99.90
27741;DHT22;15134;48.768;9.184;2023-03-23T07:28:55;15.40;99.90
27741;DHT22;15134;48.768;9.184;2023-03-23T07:31:40;15.40;99.90
27741;DHT22;15134;48.768;9.184;2023-03-23T07:34:06;15.40;99.90
27741;DHT22;15134;48.768;9.184;2023-03-23T07:36:43;15.40;99.90
27741;DHT22;15134;48.768;9.184;2023-03-23T07:39:10;15.30;99.90
27741;DHT22;15134;48.768;9.184;2023-03-23T07:41:36;15.30;99.90
27741;DHT22;15134;48.768;9.184;2023-03-23T07:44:13;15.30;99.90
27741;DHT22;15134;48.768;9.184;2023-03-23T07:46:40;15.40;99.90
27741;DHT22;15134;48.768;9.184;2023-03-23T07:49:18;15.30;99.90
27741;DHT22;15134;48.768;9.184;2023-03-23T07:51:53;15.40;99.90
27741;DHT22;15134;48.768;9.184;2023-03-23T07:54:18;15.40;99.90
27741;DHT22;15134;48.768;9.184;2023-03-23T07:57:03;15.50;99.90
27741;DHT22;15134;48.768;9.184;2023-03-23T07:59:33;15.60;99.90
27741;DHT22;15134;48.768;9.184;2023-03-23T08:01:59;15.80;99.90
27741;DHT22;15134;48.768;9.184;2023-03-23T08:04:30;16.10;99.90
27741;DHT22;15134;48.768;9.184;2023-03-23T08:07:07;16.20;99.90
27741;DHT22;15134;48.768;9.184;2023-03-23T08:09:55;16.20;99.90
27741;DHT22;15134;48.768;9.184;2023-03-23T08:12:40;16.20;99.90
27741;DHT22;15134;48.768;9.184;2023-03-23T08:15:29;16.20;99.90
27741;DHT22;15134;48.768;9.184;2023-03-23T08:18:15;16.20;99.90
27741;DHT22;15134;48.768;9.184;2023-03-23T08:21:03;16.20;99.90
27741;DHT22;15134;48.768;9.184;2023-03-23T08:23:56;16.10;99.90
27741;DHT22;15134;48.768;9.184;2023-03-23T08:26:48;16.10;99.90
27741;DHT22;15134;48.768;9.184;2023-03-23T08:29:32;16.10;99.90
27741;DHT22;15134;48.768;9.184;2023-03-23T08:32:30;16.30;99.90
27741;DHT22;15134;48.768;9.184;2023-03-23T08:35:22;16.40;99.90
27741;DHT22;15134;48.768;9.184;2023-03-23T08:38:18;16.50;99.90
27741;DHT22;15134;48.768;9.184;2023-03-23T08:41:19;16.50;99.90
27741;DHT22;15134;48.768;9.184;2023-03-23T08:44:03;16.50;99.90
27741;DHT22;15134;48.768;9.184;2023-03-23T08:46:44;16.50;99.90
27741;DHT22;15134;48.768;9.184;2023-03-23T08:49:29;16.40;99.90
27741;DHT22;15134;48.768;9.184;2023-03-23T08:52:16;16.40;99.90
27741;DHT22;15134;48.768;9.184;2023-03-23T08:54:52;16.30;99.90
27741;DHT22;15134;48.768;9.184;2023-03-23T08:57:29;16.20;99.90
27741;DHT22;15134;48.768;9.184;2023-03-23T09:00:16;16.10;99.90
27741;DHT22;15134;48.768;9.184;2023-03-23T09:03:09;16.10;99.90
27741;DHT22;15134;48.768;9.184;2023-03-23T09:05:57;16.10;99.90
27741;DHT22;15134;48.768;9.184;2023-03-23T09:08:25;16.10;99.90
27741;DHT22;15134;48.768;9.184;2023-03-23T09:10:51;16.10;99.90
27741;DHT22;15134;48.768;9.184;2023-03-23T09:13:17;16.30;99.90
27741;DHT22;15134;48.768;9.184;2023-03-23T09:15:43;16.50;99.90
27741;DHT22;15134;48.768;9.184;2023-03-23T09:18:11;16.70;99.90
27741;DHT22;15134;48.768;9.184;2023-03-23T09:20:37;16.80;99.90
27741;DHT22;15134;48.768;9.184;2023-03-23T09:23:03;16.90;99.90
27741;DHT22;15134;48.768;9.184;2023-03-23T09:25:30;17.00;99.90
27741;DHT22;15134;48.768;9.184;2023-03-23T09:27:57;17.10;99.90
27741;DHT22;15134;48.768;9.184;2023-03-23T09:30:24;17.20;99.90
27741;DHT22;15134;48.768;9.184;2023-03-23T09:32:51;17.30;99.90
27741;DHT22;15134;48.768;9.184;2023-03-23T09:35:17;17.30;99.90
27741;DHT22;15134;48.768;9.184;2023-03-23T09:37:43;17.20;99.90
27741;DHT22;15134;48.768;9.184;2023-03-23T09:40:11;17.00;99.90
27741;DHT22;15134;48.768;9.184;2023-03-23T09:42:55;16.90;99.90
27741;DHT22;15134;48.768;9.184;2023-03-23T09:45:25;16.60;99.90
27741;DHT22;15134;48.768;9.184;2023-03-23T09:50:37;16.40;99.90
27741;DHT22;15134;48.768;9.184;2023-03-23T09:53:15;16.40;99.90
27741;DHT22;15134;48.768;9.184;2023-03-23T09:55:41;16.40;99.90
27741;DHT22;15134;48.768;9.184;2023-03-23T09:58:18;16.50;99.90
27741;DHT22;15134;48.768;9.184;2023-03-23T10:00:55;16.50;99.90
27741;DHT22;15134;48.768;9.184;2023-03-23T10:03:25;16.60;99.90
27741;DHT22;15134;48.768;9.184;2023-03-23T10:05:52;16.60;99.90
27741;DHT22;15134;48.768;9.184;2023-03-23T10:10:57;16.90;99.90
27741;DHT22;15134;48.768;9.184;2023-03-23T10:15:59;17.00;99.90
27741;DHT22;15134;48.768;9.184;2023-03-23T10:18:28;17.10;99.90
27741;DHT22;15134;48.768;9.184;2023-03-23T10:21:01;17.30;99.90
27741;DHT22;15134;48.768;9.184;2023-03-23T10:28:38;17.70;99.90
27741;DHT22;15134;48.768;9.184;2023-03-23T10:31:04;17.80;99.90
27741;DHT22;15134;48.768;9.184;2023-03-23T10:33:45;17.80;99.90
27741;DHT22;15134;48.768;9.184;2023-03-23T10:38:38;17.70;99.90
27741;DHT22;15134;48.768;9.184;2023-03-23T10:41:14;17.50;99.90
27741;DHT22;15134;48.768;9.184;2023-03-23T10:43:42;17.50;99.90
27741;DHT22;15134;48.768;9.184;2023-03-23T10:46:14;17.40;99.90
27741;DHT22;15134;48.768;9.184;2023-03-23T10:48:43;17.30;99.90
27741;DHT22;15134;48.768;9.184;2023-03-23T10:51:11;17.30;99.90
27741;DHT22;15134;48.768;9.184;2023-03-23T10:53:44;17.30;99.90
27741;DHT22;15134;48.768;9.184;2023-03-23T10:56:34;17.40;99.90
27741;DHT22;15134;48.768;9.184;2023-03-23T10:59:10;17.30;99.90
27741;DHT22;15134;48.768;9.184;2023-03-23T11:01:36;17.40;99.90
27741;DHT22;15134;48.768;9.184;2023-03-23T11:04:02;17.40;99.90
27741;DHT22;15134;48.768;9.184;2023-03-23T11:06:30;17.50;99.90
27741;DHT22;15134;48.768;9.184;2023-03-23T11:09:18;17.60;99.90
27741;DHT22;15134;48.768;9.184;2023-03-23T11:11:51;17.60;99.90
27741;DHT22;15134;48.768;9.184;2023-03-23T11:16:56;17.50;99.90
27741;DHT22;15134;48.768;9.184;2023-03-23T11:21:50;17.40;99.90
27741;DHT22;15134;48.768;9.184;2023-03-23T11:24:17;17.40;99.90
27741;DHT22;15134;48.768;9.184;2023-03-23T11:26:43;17.40;99.90
27741;DHT22;15134;48.768;9.184;2023-03-23T11:31:48;17.50;99.90
27741;DHT22;15134;48.768;9.184;2023-03-23T11:34:16;17.60;99.90
27741;DHT22;15134;48.768;9.184;2023-03-23T11:36:47;17.60;99.90
27741;DHT22;15134;48.768;9.184;2023-03-23T11:39:25;17.60;99.90
27741;DHT22;15134;48.768;9.184;2023-03-23T11:41:51;17.60;99.90
27741;DHT22;15134;48.768;9.184;2023-03-23T11:44:17;17.70;99.90
27741;DHT22;15134;48.768;9.184;2023-03-23T11:46:51;17.80;99.90
27741;DHT22;15134;48.768;9.184;2023-03-23T11:51:55;18.00;99.90
27741;DHT22;15134;48.768;9.184;2023-03-23T11:54:30;18.00;99.90
27741;DHT22;15134;48.768;9.184;2023-03-23T11:56:57;18.00;99.90
27741;DHT22;15134;48.768;9.184;2023-03-23T11:59:41;18.00;99.90
27741;DHT22;15134;48.768;9.184;2023-03-23T12:04:35;18.10;99.90
27741;DHT22;15134;48.768;9.184;2023-03-23T12:20:29;18.10;99.90
27741;DHT22;15134;48.768;9.184;2023-03-23T12:33:13;18.00;99.90
27741;DHT22;15134;48.768;9.184;2023-03-23T12:40:42;18.00;99.90
27741;DHT22;15134;48.768;9.184;2023-03-23T12:43:19;18.00;99.90
27741;DHT22;15134;48.768;9.184;2023-03-23T12:45:51;18.00;99.90
27741;DHT22;15134;48.768;9.184;2023-03-23T12:48:23;18.00;99.90
27741;DHT22;15134;48.768;9.184;2023-03-23T12:53:27;18.20;99.90
27741;DHT22;15134;48.768;9.184;2023-03-23T12:58:20;18.30;99.90
27741;DHT22;15134;48.768;9.184;2023-03-23T13:03:19;18.20;99.90
27741;DHT22;15134;48.768;9.184;2023-03-23T13:05:51;18.20;99.90
27741;DHT22;15134;48.768;9.184;2023-03-23T13:08:36;18.10;99.90
27741;DHT22;15134;48.768;9.184;2023-03-23T13:11:04;18.00;99.90
27741;DHT22;15134;48.768;9.184;2023-03-23T13:13:43;18.00;99.90
27741;DHT22;15134;48.768;9.184;2023-03-23T13:16:22;17.90;99.90
27741;DHT22;15134;48.768;9.184;2023-03-23T13:21:41;18.00;99.90
27741;DHT22;15134;48.768;9.184;2023-03-23T13:24:13;18.00;99.90
27741;DHT22;15134;48.768;9.184;2023-03-23T13:26:40;18.10;99.90
27741;DHT22;15134;48.768;9.184;2023-03-23T13:29:18;18.20;99.90
27741;DHT22;15134;48.768;9.184;2023-03-23T13:31:45;18.30;99.90
27741;DHT22;15134;48.768;9.184;2023-03-23T13:39:33;18.40;99.90
27741;DHT22;15134;48.768;9.184;2023-03-23T13:42:01;18.50;99.90
27741;DHT22;15134;48.768;9.184;2023-03-23T13:44:38;18.50;99.90
27741;DHT22;15134;48.768;9.184;2023-03-23T13:47:07;18.50;99.90
27741;DHT22;15134;48.768;9.184;2023-03-23T13:49:44;18.40;99.90
27741;DHT22;15134;48.768;9.184;2023-03-23T13:55:08;18.30;99.90
27741;DHT22;15134;48.768;9.184;2023-03-23T14:00:25;18.40;99.90
27741;DHT22;15134;48.768;9.184;2023-03-23T14:02:51;18.40;99.90
27741;DHT22;15134;48.768;9.184;2023-03-23T14:10:17;18.10;99.90
27741;DHT22;15134;48.768;9.184;2023-03-23T14:12:43;18.10;99.90
27741;DHT22;15134;48.768;9.184;2023-03-23T14:15:11;18.00;99.90
27741;DHT22;15134;48.768;9.184;2023-03-23T14:17:41;18.00;99.90
27741;DHT22;15134;48.768;9.184;2023-03-23T14:20:23;18.00;99.90
27741;DHT22;15134;48.768;9.184;2023-03-23T14:22:53;18.00;99.90
27741;DHT22;15134;48.768;9.184;2023-03-23T14:25:19;17.90;99.90
27741;DHT22;15134;48.768;9.184;2023-03-23T14:27:46;17.90;99.90
27741;DHT22;15134;48.768;9.184;2023-03-23T14:30:19;17.80;99.90
27741;DHT22;15134;48.768;9.184;2023-03-23T14:32:45;17.80;99.90
27741;DHT22;15134;48.768;9.184;2023-03-23T14:35:31;17.90;99.90
27741;DHT22;15134;48.768;9.184;2023-03-23T14:37:57;18.00;99.90
27741;DHT22;15134;48.768;9.184;2023-03-23T14:40:25;18.00;99.90
27741;DHT22;15134;48.768;9.184;2023-03-23T14:42:51;18.00;99.90
27741;DHT22;15134;48.768;9.184;2023-03-23T14:45:20;18.00;99.90
27741;DHT22;15134;48.768;9.184;2023-03-23T14:47:47;18.00;99.90
27741;DHT22;15134;48.768;9.184;2023-03-23T14:52:51;18.00;99.90
27741;DHT22;15134;48.768;9.184;2023-03-23T14:57:43;17.90;99.90
27741;DHT22;15134;48.768;9.184;2023-03-23T15:00:13;17.90;99.90
27741;DHT22;15134;48.768;9.184;2023-03-23T15:02:40;17.80;99.90
27741;DHT22;15134;48.768;9.184;2023-03-23T15:05:10;17.90;99.90
27741;DHT22;15134;48.768;9.184;2023-03-23T15:07:37;17.80;99.90
27741;DHT22;15134;48.768;9.184;2023-03-23T15:10:07;17.80;99.90
27741;DHT22;15134;48.768;9.184;2023-03-23T15:12:33;17.80;99.90
27741;DHT22;15134;48.768;9.184;2023-03-23T15:15:00;17.80;99.90
27741;DHT22;15134;48.768;9.184;2023-03-23T15:17:28;17.80;99.90
27741;DHT22;15134;48.768;9.184;2023-03-23T15:19:54;17.80;99.90
27741;DHT22;15134;48.768;9.184;2023-03-23T15:22:24;17.80;99.90
27741;DHT22;15134;48.768;9.184;2023-03-23T15:24:51;17.90;99.90
27741;DHT22;15134;48.768;9.184;2023-03-23T15:27:27;17.90;99.90
27741;DHT22;15134;48.768;9.184;2023-03-23T15:29:54;17.90;99.90
27741;DHT22;15134;48.768;9.184;2023-03-23T15:32:21;17.80;99.90
27741;DHT22;15134;48.768;9.184;2023-03-23T15:34:46;17.80;99.90
27741;DHT22;15134;48.768;9.184;2023-03-23T15:37:20;17.80;99.90
27741;DHT22;15134;48.768;9.184;2023-03-23T15:39:46;17.80;99.90
27741;DHT22;15134;48.768;9.184;2023-03-23T15:42:22;17.70;99.90
27741;DHT22;15134;48.768;9.184;2023-03-23T15:44:55;17.70;99.90
27741;DHT22;15134;48.768;9.184;2023-03-23T15:47:21;17.60;99.90
27741;DHT22;15134;48.768;9.184;2023-03-23T15:49:57;17.50;99.90
27741;DHT22;15134;48.768;9.184;2023-03-23T15:52:24;17.50;99.90
27741;DHT22;15134;48.768;9.184;2023-03-23T15:54:50;17.40;99.90
27741;DHT22;15134;48.768;9.184;2023-03-23T15:57:16;17.40;99.90
27741;DHT22;15134;48.768;9.184;2023-03-23T15:59:41;17.40;99.90
27741;DHT22;15134;48.768;9.184;2023-03-23T16:02:10;17.40;99.90
27741;DHT22;15134;48.768;9.184;2023-03-23T16:04:39;17.40;99.90
27741;DHT22;15134;48.768;9.184;2023-03-23T16:07:04;17.30;99.90
27741;DHT22;15134;48.768;9.184;2023-03-23T16:09:31;17.30;99.90
27741;DHT22;15134;48.768;9.184;2023-03-23T16:11:57;17.30;99.90
27741;DHT22;15134;48.768;9.184;2023-03-23T16:14:22;17.20;99.90
27741;DHT22;15134;48.768;9.184;2023-03-23T16:16:48;17.20;99.90
27741;DHT22;15134;48.768;9.184;2023-03-23T16:19:15;17.10;99.90
27741;DHT22;15134;48.768;9.184;2023-03-23T16:21:41;17.10;99.90
27741;DHT22;15134;48.768;9.184;2023-03-23T16:24:07;17.00;99.90
27741;DHT22;15134;48.768;9.184;2023-03-23T16:26:33;17.00;99.90
27741;DHT22;15134;48.768;9.184;2023-03-23T16:28:59;17.00;99.90
27741;DHT22;15134;48.768;9.184;2023-03-23T16:31:25;17.00;99.90
27741;DHT22;15134;48.768;9.184;2023-03-23T16:33:50;16.90;99.90
27741;DHT22;15134;48.768;9.184;2023-03-23T16:36:16;16.90;99.90
27741;DHT22;15134;48.768;9.184;2023-03-23T16:38:42;16.90;99.90
27741;DHT22;15134;48.768;9.184;2023-03-23T16:41:07;16.80;99.90
27741;DHT22;15134;48.768;9.184;2023-03-23T16:43:33;16.80;99.90
27741;DHT22;15134;48.768;9.184;2023-03-23T16:45:59;16.80;99.90
27741;DHT22;15134;48.768;9.184;2023-03-23T16:48:24;16.80;99.90
27741;DHT22;15134;48.768;9.184;2023-03-23T16:50:51;16.70;99.90
27741;DHT22;15134;48.768;9.184;2023-03-23T16:53:17;16.70;99.90
27741;DHT22;15134;48.768;9.184;2023-03-23T16:55:43;16.70;99.90
27741;DHT22;15134;48.768;9.184;2023-03-23T16:58:12;16.60;99.90
27741;DHT22;15134;48.768;9.184;2023-03-23T17:00:38;16.60;99.90
27741;DHT22;15134;48.768;9.184;2023-03-23T17:03:05;16.60;99.90
27741;DHT22;15134;48.768;9.184;2023-03-23T17:05:30;16.60;99.90
27741;DHT22;15134;48.768;9.184;2023-03-23T17:07:56;16.50;99.90
27741;DHT22;15134;48.768;9.184;2023-03-23T17:10:26;16.50;99.90
27741;DHT22;15134;48.768;9.184;2023-03-23T17:12:52;16.60;99.90
27741;DHT22;15134;48.768;9.184;2023-03-23T17:15:18;16.50;99.90
27741;DHT22;15134;48.768;9.184;2023-03-23T17:17:43;16.50;99.90
27741;DHT22;15134;48.768;9.184;2023-03-23T17:20:09;16.50;99.90
27741;DHT22;15134;48.768;9.184;2023-03-23T17:22:35;16.50;99.90
27741;DHT22;15134;48.768;9.184;2023-03-23T17:25:02;16.50;99.90
27741;DHT22;15134;48.768;9.184;2023-03-23T17:27:28;16.50;99.90
27741;DHT22;15134;48.768;9.184;2023-03-23T17:29:54;16.40;99.90
27741;DHT22;15134;48.768;9.184;2023-03-23T17:32:20;16.40;99.90
27741;DHT22;15134;48.768;9.184;2023-03-23T17:34:48;16.40;99.90
27741;DHT22;15134;48.768;9.184;2023-03-23T17:37:13;16.40;99.90
27741;DHT22;15134;48.768;9.184;2023-03-23T17:39:39;16.30;99.90
27741;DHT22;15134;48.768;9.184;2023-03-23T17:42:05;16.30;99.90